createdAt,value
2023-05-06T00:00:18.082Z,84.59
2023-05-06T00:02:51.241Z,84.71
2023-05-06T00:05:23.952Z,85.00
2023-05-06T00:07:56.714Z,85.21
2023-05-06T00:10:29.882Z,85.46
2023-05-06T00:13:02.917Z,85.51
2023-05-06T00:15:36.894Z,85.52
2023-05-06T00:18:10.392Z,85.55
2023-05-06T00:20:43.791Z,85.58
2023-05-06T00:23:16.725Z,85.61
2023-05-06T00:25:49.768Z,85.60
2023-05-06T00:28:22.723Z,85.77
2023-05-06T00:30:55.610Z,85.92
2023-05-06T00:33:29.081Z,85.91
2023-05-06T00:36:02.001Z,85.79
2023-05-06T00:38:34.906Z,85.67
2023-05-06T00:41:08.453Z,85.56
2023-05-06T00:43:41.356Z,85.65
2023-05-06T00:46:14.260Z,85.68
2023-05-06T00:48:47.383Z,85.81
2023-05-06T00:51:20.434Z,85.94
2023-05-06T00:53:53.165Z,85.91
2023-05-06T00:56:26.098Z,86.02
2023-05-06T00:58:59.894Z,86.25
2023-05-06T01:01:33.765Z,86.38
2023-05-06T01:04:08.982Z,86.45
2023-05-06T01:07:11.445Z,86.41
2023-05-06T01:10:03.957Z,86.26
2023-05-06T01:12:53.620Z,86.37
2023-05-06T01:15:41.867Z,86.32
2023-05-06T01:18:18.916Z,86.31
2023-05-06T01:20:54.983Z,86.38
2023-05-06T01:23:27.786Z,86.36
2023-05-06T01:26:00.921Z,86.46
2023-05-06T01:28:34.012Z,86.65
2023-05-06T01:31:12.735Z,86.84
2023-05-06T01:33:53.004Z,86.67
2023-05-06T01:36:42.351Z,86.70
2023-05-06T01:39:21.956Z,86.64
2023-05-06T01:41:57.767Z,86.52
2023-05-06T01:44:34.656Z,86.40
2023-05-06T01:47:09.213Z,86.39
2023-05-06T01:49:42.251Z,86.60
2023-05-06T01:52:17.921Z,86.78
2023-05-06T01:54:50.760Z,86.46
2023-05-06T01:57:23.498Z,86.41
2023-05-06T01:59:56.320Z,86.23
2023-05-06T02:02:29.586Z,86.41
2023-05-06T02:05:02.470Z,86.70
2023-05-06T02:07:35.952Z,86.87
2023-05-06T02:10:09.679Z,86.93
2023-05-06T02:12:44.494Z,87.33
2023-05-06T02:15:17.337Z,87.27
2023-05-06T02:17:50.269Z,87.29
2023-05-06T02:20:23.034Z,87.33
2023-05-06T02:22:56.617Z,87.17
2023-05-06T02:25:30.349Z,87.27
2023-05-06T02:28:03.299Z,87.45
2023-05-06T02:30:36.887Z,87.58
2023-05-06T02:33:09.585Z,87.54
2023-05-06T02:35:42.958Z,87.81
2023-05-06T02:38:15.800Z,87.93
2023-05-06T02:40:48.912Z,87.76
2023-05-06T02:43:23.436Z,87.76
2023-05-06T02:45:56.214Z,87.78
2023-05-06T02:48:30.892Z,87.72
2023-05-06T02:51:03.806Z,87.57
2023-05-06T02:53:36.712Z,87.64
2023-05-06T02:56:09.743Z,87.48
2023-05-06T02:58:42.614Z,87.55
2023-05-06T03:01:15.725Z,87.61
2023-05-06T03:03:49.122Z,87.71
2023-05-06T03:06:22.151Z,87.70
2023-05-06T03:08:54.886Z,87.36
2023-05-06T03:11:30.092Z,87.41
2023-05-06T03:14:03.847Z,87.61
2023-05-06T03:16:38.038Z,87.43
2023-05-06T03:19:10.935Z,87.47
2023-05-06T03:21:44.206Z,87.34
2023-05-06T03:24:17.358Z,87.42
2023-05-06T03:26:50.902Z,87.31
2023-05-06T03:29:24.067Z,87.29
2023-05-06T03:32:01.174Z,87.06
2023-05-06T03:34:34.832Z,86.03
2023-05-06T03:37:07.742Z,85.87
2023-05-06T03:39:41.499Z,85.80
2023-05-06T03:42:15.299Z,85.92
2023-05-06T03:44:48.660Z,85.86
2023-05-06T03:47:22.027Z,86.10
2023-05-06T03:49:54.898Z,86.55
2023-05-06T03:52:27.918Z,86.80
2023-05-06T03:55:01.045Z,86.67
2023-05-06T03:57:34.390Z,86.20
2023-05-06T04:00:09.235Z,86.11
2023-05-06T04:02:44.197Z,86.06
2023-05-06T04:05:18.746Z,86.10
2023-05-06T04:07:51.909Z,85.78
2023-05-06T04:10:25.028Z,85.33
2023-05-06T04:12:58.361Z,85.32
2023-05-06T04:15:34.695Z,85.44
2023-05-06T04:18:08.904Z,85.28
2023-05-06T04:20:43.389Z,84.83
2023-05-06T04:23:16.600Z,84.87
2023-05-06T04:25:49.546Z,85.20
2023-05-06T04:28:23.116Z,85.44
2023-05-06T04:30:56.955Z,84.89
2023-05-06T04:33:31.661Z,84.81
2023-05-06T04:36:06.867Z,84.54
2023-05-06T04:38:41.256Z,84.65
2023-05-06T04:41:15.973Z,84.13
2023-05-06T04:43:49.164Z,84.25
2023-05-06T04:46:24.004Z,84.18
2023-05-06T04:48:58.595Z,84.40
2023-05-06T04:51:31.920Z,84.85
2023-05-06T04:54:06.351Z,84.39
2023-05-06T04:56:40.191Z,84.39
2023-05-06T04:59:13.609Z,85.35
2023-05-06T05:01:46.639Z,85.67
2023-05-06T05:04:19.584Z,85.77
2023-05-06T05:06:53.233Z,86.08
2023-05-06T05:09:26.618Z,86.06
2023-05-06T05:11:59.517Z,86.06
2023-05-06T05:14:32.444Z,85.89
2023-05-06T05:17:05.619Z,86.08
2023-05-06T05:19:39.373Z,86.35
2023-05-06T05:22:13.049Z,86.42
2023-05-06T05:24:46.058Z,85.99
2023-05-06T05:27:19.185Z,85.90
2023-05-06T05:29:52.461Z,85.56
2023-05-06T05:32:26.797Z,84.89
2023-05-06T05:34:59.596Z,84.46
2023-05-06T05:37:32.256Z,83.45
2023-05-06T05:40:06.283Z,84.16
2023-05-06T05:42:38.804Z,82.81
2023-05-06T05:45:14.121Z,81.81
2023-05-06T05:47:47.724Z,81.93
2023-05-06T05:50:21.486Z,82.29
2023-05-06T05:52:54.997Z,82.46
2023-05-06T05:55:30.203Z,82.72
2023-05-06T05:58:03.257Z,82.22
2023-05-06T06:00:36.815Z,81.96
2023-05-06T06:03:11.822Z,81.14
2023-05-06T06:05:45.048Z,80.07
2023-05-06T06:08:21.571Z,79.27
2023-05-06T06:10:56.629Z,78.85
2023-05-06T06:13:31.750Z,79.12
2023-05-06T06:16:05.708Z,78.50
2023-05-06T06:18:39.525Z,78.53
2023-05-06T06:21:12.833Z,77.55
2023-05-06T06:23:45.981Z,78.66
2023-05-06T06:26:18.902Z,78.68
2023-05-06T06:28:51.666Z,79.16
2023-05-06T06:31:24.534Z,78.39
2023-05-06T06:33:57.710Z,78.39
2023-05-06T06:36:30.998Z,78.46
2023-05-06T06:39:03.836Z,77.55
2023-05-06T06:41:36.729Z,78.07
2023-05-06T06:44:09.597Z,78.25
2023-05-06T06:46:43.263Z,77.52
2023-05-06T06:49:17.521Z,77.21
2023-05-06T06:51:52.238Z,77.03
2023-05-06T06:54:26.016Z,77.59
2023-05-06T06:56:58.929Z,77.53
2023-05-06T06:59:31.667Z,76.71
2023-05-06T07:02:04.820Z,77.41
2023-05-06T07:04:38.088Z,77.64
2023-05-06T07:07:10.980Z,76.44
2023-05-06T07:09:44.575Z,75.40
2023-05-06T07:12:17.465Z,75.61
2023-05-06T07:14:50.300Z,76.07
2023-05-06T07:17:23.421Z,76.25
2023-05-06T07:19:56.524Z,75.84
2023-05-06T07:22:30.439Z,74.66
2023-05-06T07:25:03.164Z,74.19
2023-05-06T07:27:37.030Z,74.45
2023-05-06T07:30:10.963Z,74.35
2023-05-06T07:32:43.730Z,74.40
2023-05-06T07:35:16.451Z,73.80
2023-05-06T07:37:49.736Z,73.83
2023-05-06T07:40:22.636Z,74.63
2023-05-06T07:42:56.013Z,73.22
2023-05-06T07:45:28.904Z,73.87
2023-05-06T07:48:01.778Z,73.60
2023-05-06T07:50:35.020Z,73.46
2023-05-06T07:53:07.930Z,73.15
2023-05-06T07:55:40.807Z,71.91
2023-05-06T07:58:13.678Z,71.69
2023-05-06T08:00:46.597Z,72.23
2023-05-06T08:03:19.790Z,72.41
2023-05-06T08:05:53.851Z,72.24
2023-05-06T08:08:29.818Z,73.00
2023-05-06T08:11:03.483Z,72.78
2023-05-06T08:13:36.479Z,72.09
2023-05-06T08:16:09.594Z,70.80
2023-05-06T08:18:42.542Z,70.23
2023-05-06T08:21:15.366Z,69.42
2023-05-06T08:23:48.118Z,70.34
2023-05-06T08:26:21.630Z,70.03
2023-05-06T08:28:56.153Z,69.35
2023-05-06T08:31:28.975Z,70.86
2023-05-06T08:34:01.928Z,70.00
2023-05-06T08:36:34.786Z,70.53
2023-05-06T08:39:07.764Z,70.54
2023-05-06T08:41:40.791Z,70.80
2023-05-06T08:44:16.955Z,70.76
2023-05-06T08:46:50.322Z,69.75
2023-05-06T08:49:23.370Z,69.42
2023-05-06T08:51:57.527Z,69.62
2023-05-06T08:54:30.325Z,68.82
2023-05-06T08:57:08.145Z,68.40
2023-05-06T08:59:42.616Z,68.18
2023-05-06T09:02:15.663Z,67.77
2023-05-06T09:04:50.863Z,67.88
2023-05-06T09:07:24.849Z,67.72
2023-05-06T09:09:57.860Z,67.19
2023-05-06T09:12:30.649Z,66.96
2023-05-06T09:15:03.890Z,67.70
2023-05-06T09:17:37.700Z,67.32
2023-05-06T09:20:13.475Z,66.88
2023-05-06T09:22:46.642Z,66.57
2023-05-06T09:25:19.993Z,66.25
2023-05-06T09:27:57.096Z,66.64
2023-05-06T09:30:30.414Z,67.27
2023-05-06T09:33:05.120Z,66.46
2023-05-06T09:35:42.292Z,66.42
2023-05-06T09:38:15.138Z,65.34
2023-05-06T09:40:47.921Z,65.71
2023-05-06T09:43:20.942Z,66.06
2023-05-06T09:45:53.875Z,66.03
2023-05-06T09:48:30.619Z,65.63
2023-05-06T09:51:03.736Z,65.33
2023-05-06T09:53:40.160Z,64.55
2023-05-06T09:56:14.394Z,64.74
2023-05-06T09:58:48.425Z,65.82
2023-05-06T10:01:32.731Z,64.63
2023-05-06T10:03:57.048Z,63.69
2023-05-06T10:06:29.608Z,64.73
2023-05-06T10:09:02.764Z,64.45
2023-05-06T10:11:37.468Z,63.89
2023-05-06T10:14:10.462Z,63.07
2023-05-06T10:16:44.050Z,63.42
2023-05-06T10:19:20.236Z,63.15
2023-05-06T10:21:58.189Z,63.74
2023-05-06T10:24:38.353Z,64.15
2023-05-06T10:27:13.187Z,63.13
2023-05-06T10:29:45.441Z,62.23
2023-05-06T10:32:19.950Z,61.71
2023-05-06T10:34:55.639Z,61.47
2023-05-06T10:37:30.072Z,61.03
2023-05-06T10:40:03.289Z,61.72
2023-05-06T10:42:37.239Z,60.83
2023-05-06T10:45:11.818Z,60.05
2023-05-06T10:48:06.090Z,59.81
2023-05-06T10:50:39.560Z,59.76
2023-05-06T10:53:12.443Z,57.37
2023-05-06T10:55:45.633Z,57.02
2023-05-06T10:58:19.318Z,57.66
2023-05-06T11:00:56.406Z,57.06
2023-05-06T11:03:29.503Z,56.67
2023-05-06T11:06:02.711Z,56.67
2023-05-06T11:08:36.690Z,55.89
2023-05-06T11:11:48.918Z,55.59
2023-05-06T11:14:29.049Z,54.83
2023-05-06T11:17:05.151Z,56.54
2023-05-06T11:19:40.885Z,56.59
2023-05-06T11:22:15.095Z,55.88
2023-05-06T11:24:48.003Z,54.49
2023-05-06T11:27:22.364Z,55.15
2023-05-06T11:29:55.996Z,54.93
2023-05-06T11:32:30.913Z,54.86
2023-05-06T11:35:03.683Z,53.99
2023-05-06T11:37:37.721Z,54.18
2023-05-06T11:40:18.193Z,53.47
2023-05-06T11:42:51.094Z,53.37
2023-05-06T11:45:24.078Z,53.04
2023-05-06T11:47:57.161Z,52.52
2023-05-06T11:50:31.111Z,52.72
2023-05-06T11:53:04.285Z,53.30
2023-05-06T11:55:37.745Z,53.88
2023-05-06T11:58:23.072Z,53.14
2023-05-06T12:00:58.066Z,52.93
2023-05-06T12:03:33.447Z,52.42
2023-05-06T12:06:06.784Z,52.67
2023-05-06T12:08:40.119Z,52.97
2023-05-06T12:11:13.198Z,52.85
2023-05-06T12:13:46.698Z,53.32
2023-05-06T12:16:19.744Z,53.93
2023-05-06T12:18:54.277Z,54.05
2023-05-06T12:21:27.391Z,54.20
2023-05-06T12:24:01.986Z,53.74
2023-05-06T12:26:52.095Z,53.73
2023-05-06T12:29:25.046Z,53.36
2023-05-06T12:32:12.869Z,53.66
2023-05-06T12:34:45.548Z,53.73
2023-05-06T12:37:30.318Z,53.44
2023-05-06T12:40:03.399Z,53.81
2023-05-06T12:42:36.583Z,55.08
2023-05-06T12:45:16.315Z,54.84
2023-05-06T12:47:58.064Z,54.47
2023-05-06T12:50:42.686Z,54.38
2023-05-06T12:53:16.106Z,51.57
2023-05-06T12:55:48.766Z,49.30
2023-05-06T12:58:22.030Z,48.45
2023-05-06T13:00:54.992Z,48.50
2023-05-06T13:03:28.229Z,48.84
2023-05-06T13:06:01.159Z,47.71
2023-05-06T13:08:34.330Z,48.09
2023-05-06T13:11:07.198Z,47.34
2023-05-06T13:13:40.061Z,46.43
2023-05-06T13:16:13.046Z,46.37
2023-05-06T13:18:46.284Z,47.26
2023-05-06T13:21:18.989Z,47.38
2023-05-06T13:23:51.897Z,47.72
2023-05-06T13:26:25.198Z,47.84
2023-05-06T13:28:58.127Z,47.85
2023-05-06T13:31:31.823Z,47.02
2023-05-06T13:34:04.834Z,47.03
2023-05-06T13:36:37.942Z,48.06
2023-05-06T13:39:11.059Z,47.13
2023-05-06T13:41:50.461Z,46.97
2023-05-06T13:44:24.815Z,46.56
2023-05-06T13:46:56.677Z,46.43
2023-05-06T13:49:29.282Z,46.84
2023-05-06T13:52:02.094Z,47.51
2023-05-06T13:54:35.619Z,46.55
2023-05-06T13:57:08.442Z,45.77
2023-05-06T13:59:41.478Z,45.42
2023-05-06T14:02:15.026Z,44.20
2023-05-06T14:04:48.000Z,44.27
2023-05-06T14:07:20.790Z,43.88
2023-05-06T14:09:53.544Z,43.89
2023-05-06T14:12:26.501Z,43.48
2023-05-06T14:14:59.260Z,43.32
2023-05-06T14:17:32.162Z,42.48
2023-05-06T14:20:09.790Z,42.89
2023-05-06T14:22:43.286Z,42.37
2023-05-06T14:25:16.150Z,41.55
2023-05-06T14:27:49.554Z,42.32
2023-05-06T14:30:22.496Z,42.38
2023-05-06T14:32:55.755Z,42.13
2023-05-06T14:35:28.917Z,42.44
2023-05-06T14:38:01.732Z,43.08
2023-05-06T14:40:37.214Z,43.93
2023-05-06T14:43:10.325Z,44.34
2023-05-06T14:45:43.225Z,43.61
2023-05-06T14:48:16.240Z,43.65
2023-05-06T14:50:49.069Z,43.53
2023-05-06T14:53:22.094Z,43.78
2023-05-06T14:55:56.632Z,43.71
2023-05-06T14:58:29.405Z,44.41
2023-05-06T15:01:02.528Z,44.02
2023-05-06T15:03:36.558Z,44.42
2023-05-06T15:06:09.713Z,44.51
2023-05-06T15:08:43.092Z,44.92
2023-05-06T15:11:16.004Z,45.62
2023-05-06T15:13:48.859Z,46.17
2023-05-06T15:16:21.675Z,45.30
2023-05-06T15:18:54.524Z,45.58
2023-05-06T15:21:27.910Z,45.64
2023-05-06T15:24:02.049Z,46.31
2023-05-06T15:26:35.129Z,45.37
2023-05-06T15:29:07.942Z,45.86
2023-05-06T15:31:41.538Z,45.19
2023-05-06T15:34:14.984Z,45.47
2023-05-06T15:36:53.070Z,45.47
2023-05-06T15:39:25.945Z,44.83
2023-05-06T15:42:01.568Z,44.27
2023-05-06T15:44:37.564Z,44.75
2023-05-06T15:47:10.105Z,44.97
2023-05-06T15:52:37.202Z,44.97
2023-05-06T15:55:13.353Z,44.91
2023-05-06T15:57:46.593Z,44.88
2023-05-06T16:00:20.225Z,44.77
2023-05-06T16:02:53.601Z,44.43
2023-05-06T16:05:26.672Z,44.57
2023-05-06T16:07:59.963Z,44.50
2023-05-06T16:10:33.282Z,44.50
2023-05-06T16:13:06.393Z,45.06
2023-05-06T16:15:39.285Z,45.02
2023-05-06T16:18:12.923Z,45.66
2023-05-06T16:20:45.991Z,45.99
2023-05-06T16:23:19.897Z,46.18
2023-05-06T16:25:52.960Z,47.75
2023-05-06T16:28:26.540Z,47.75
2023-05-06T16:30:59.612Z,48.20
2023-05-06T16:33:33.309Z,48.56
2023-05-06T16:36:07.731Z,48.76
2023-05-06T16:38:41.257Z,48.88
2023-05-06T16:41:13.945Z,48.90
2023-05-06T16:43:46.928Z,49.02
2023-05-06T16:46:21.373Z,49.36
2023-05-06T16:48:56.167Z,49.72
2023-05-06T16:51:29.031Z,50.15
2023-05-06T16:54:02.065Z,50.50
2023-05-06T16:56:48.225Z,50.66
2023-05-06T16:59:10.414Z,50.99
2023-05-06T17:01:43.222Z,51.14
2023-05-06T17:04:16.754Z,51.66
2023-05-06T17:06:49.768Z,51.95
2023-05-06T17:09:23.713Z,52.17
2023-05-06T17:11:56.637Z,52.37
2023-05-06T17:14:29.777Z,52.62
2023-05-06T17:17:04.510Z,52.66
2023-05-06T17:19:38.636Z,52.89
2023-05-06T17:22:11.755Z,52.63
2023-05-06T17:24:45.069Z,52.94
2023-05-06T17:27:18.714Z,52.79
2023-05-06T17:29:51.648Z,53.47
2023-05-06T17:32:24.785Z,53.78
2023-05-06T17:34:57.663Z,54.03
2023-05-06T17:37:31.218Z,54.14
2023-05-06T17:40:05.226Z,54.42
2023-05-06T17:42:39.755Z,55.08
2023-05-06T17:45:13.737Z,55.69
2023-05-06T17:47:49.193Z,56.28
2023-05-06T17:50:22.707Z,56.85
2023-05-06T17:52:56.385Z,57.13
2023-05-06T17:55:29.595Z,57.19
2023-05-06T17:58:02.703Z,56.98
2023-05-06T18:00:38.619Z,56.96
2023-05-06T18:03:13.985Z,57.15
2023-05-06T18:05:48.287Z,57.15
2023-05-06T18:08:24.892Z,56.84
2023-05-06T18:10:59.480Z,57.33
2023-05-06T18:13:34.693Z,58.49
2023-05-06T18:16:07.968Z,59.52
2023-05-06T18:18:41.394Z,60.24
2023-05-06T18:21:14.653Z,60.89
2023-05-06T18:23:48.567Z,61.56
2023-05-06T18:26:39.926Z,62.58
2023-05-06T18:28:57.550Z,63.55
2023-05-06T18:31:30.567Z,64.29
2023-05-06T18:34:03.518Z,65.19
2023-05-06T18:36:36.721Z,65.66
2023-05-06T18:39:10.000Z,65.93
2023-05-06T18:41:43.720Z,66.18
2023-05-06T18:44:16.553Z,66.50
2023-05-06T18:46:49.520Z,66.76
2023-05-06T18:49:23.145Z,67.66
2023-05-06T18:51:56.421Z,68.02
2023-05-06T18:54:29.423Z,68.64
2023-05-06T18:57:03.101Z,68.92
2023-05-06T18:59:36.045Z,69.28
2023-05-06T19:02:09.514Z,69.66
2023-05-06T19:04:42.562Z,70.25
2023-05-06T19:07:16.304Z,70.25
2023-05-06T19:09:48.746Z,70.45
2023-05-06T19:12:23.050Z,70.80
2023-05-06T19:14:55.925Z,70.98
2023-05-06T19:17:29.978Z,71.07
2023-05-06T19:20:02.906Z,71.43
2023-05-06T19:22:36.682Z,71.46
2023-05-06T19:25:11.384Z,71.22
2023-05-06T19:27:44.296Z,70.48
2023-05-06T19:30:17.646Z,70.46
2023-05-06T19:32:51.059Z,70.29
2023-05-06T19:35:23.962Z,70.61
2023-05-06T19:37:57.449Z,70.32
2023-05-06T19:40:31.430Z,70.34
2023-05-06T19:43:07.482Z,70.04
2023-05-06T19:45:40.414Z,69.98
2023-05-06T19:48:14.825Z,69.74
2023-05-06T19:50:47.827Z,69.62
2023-05-06T19:53:23.014Z,69.58
2023-05-06T19:55:58.262Z,69.76
2023-05-06T19:58:31.699Z,69.80
2023-05-06T20:01:04.587Z,70.37
2023-05-06T20:03:38.005Z,70.70
2023-05-06T20:06:11.009Z,70.55
2023-05-06T20:08:44.555Z,70.92
2023-05-06T20:11:17.498Z,71.31
2023-05-06T20:13:50.667Z,71.75
2023-05-06T20:16:24.248Z,71.85
2023-05-06T20:18:57.451Z,72.24
2023-05-06T20:21:30.386Z,72.59
2023-05-06T20:24:03.298Z,73.03
2023-05-06T20:26:36.111Z,72.36
2023-05-06T20:29:09.001Z,72.51
2023-05-06T20:31:42.030Z,72.18
2023-05-06T20:34:15.709Z,71.88
2023-05-06T20:36:48.739Z,72.10
2023-05-06T20:39:22.352Z,72.10
2023-05-06T20:41:55.012Z,72.14
2023-05-06T20:44:27.758Z,72.32
2023-05-06T20:47:00.499Z,72.43
2023-05-06T20:49:33.494Z,71.78
2023-05-06T20:52:08.110Z,71.81
2023-05-06T20:54:41.940Z,71.92
2023-05-06T20:57:17.166Z,71.82
2023-05-06T20:59:52.958Z,71.71
2023-05-06T21:02:27.786Z,71.47
2023-05-06T21:05:00.688Z,71.84
2023-05-06T21:07:34.039Z,71.65
2023-05-06T21:10:07.560Z,71.33
2023-05-06T21:12:40.961Z,71.27
2023-05-06T21:15:14.035Z,71.24
2023-05-06T21:17:47.269Z,71.10
2023-05-06T21:20:20.268Z,71.02
2023-05-06T21:22:53.108Z,71.30
2023-05-06T21:25:26.041Z,71.73
2023-05-06T21:28:00.720Z,71.92
2023-05-06T21:30:36.396Z,72.10
2023-05-06T21:33:11.500Z,72.01
2023-05-06T21:35:44.158Z,71.82
2023-05-06T21:38:17.090Z,71.43
2023-05-06T21:40:49.848Z,71.40
2023-05-06T21:43:22.706Z,71.46
2023-05-06T21:45:55.478Z,71.03
2023-05-06T21:48:28.247Z,71.42
2023-05-06T21:51:05.616Z,70.71
2023-05-06T21:53:38.685Z,71.06
2023-05-06T21:56:11.386Z,71.13
2023-05-06T21:58:44.404Z,71.02
2023-05-06T22:01:17.343Z,71.29
2023-05-06T22:03:50.394Z,71.56
2023-05-06T22:06:24.037Z,71.43
2023-05-06T22:08:57.091Z,71.57
2023-05-06T22:11:30.286Z,71.64
2023-05-06T22:14:03.410Z,71.70
2023-05-06T22:16:38.287Z,71.61
2023-05-06T22:19:11.236Z,71.59
2023-05-06T22:21:44.164Z,71.05
2023-05-06T22:24:17.474Z,71.19
2023-05-06T22:26:50.394Z,71.05
2023-05-06T22:29:23.214Z,71.08
2023-05-06T22:31:56.309Z,70.96
2023-05-06T22:34:29.836Z,71.03
2023-05-06T22:37:04.311Z,70.99
2023-05-06T22:39:39.457Z,70.53
2023-05-06T22:42:12.117Z,70.51
2023-05-06T22:44:45.215Z,70.43
2023-05-06T22:47:19.532Z,70.25
2023-05-06T22:49:51.322Z,69.60
2023-05-06T22:52:25.655Z,70.29
2023-05-06T22:54:58.369Z,70.10
2023-05-06T22:57:31.410Z,70.15
2023-05-06T23:00:05.796Z,69.93
2023-05-06T23:02:39.134Z,70.07
2023-05-06T23:05:12.953Z,70.24
2023-05-06T23:07:47.129Z,69.71
2023-05-06T23:10:20.515Z,70.12
2023-05-06T23:12:53.903Z,70.66
2023-05-06T23:15:26.688Z,70.52
2023-05-06T23:17:59.403Z,70.60
2023-05-06T23:20:32.720Z,70.53
2023-05-06T23:23:05.424Z,70.34
2023-05-06T23:25:39.148Z,70.54
2023-05-06T23:28:12.041Z,70.23
2023-05-06T23:30:44.916Z,70.21
2023-05-06T23:33:17.659Z,70.30
2023-05-06T23:35:50.396Z,70.25
2023-05-06T23:38:23.232Z,70.24
2023-05-06T23:40:56.138Z,70.15
2023-05-06T23:43:29.285Z,70.07
2023-05-06T23:46:02.085Z,69.81
2023-05-06T23:48:35.947Z,69.76
2023-05-06T23:51:08.760Z,69.85
2023-05-06T23:53:41.707Z,69.82
2023-05-06T23:56:14.537Z,69.99
2023-05-06T23:58:47.177Z,70.55
